Time;durP1;ratioP1;P1;durP2;ratioP2;P2;SDS_P1;SDS_P2;PMS_P1;PMS_P2;Temp;Humidity;BMP_temperature;BMP_pressure;BME280_temperature;BME280_humidity;BME280_pressure;Samples;Min_cycle;Max_cycle;Signal;HPM_P1;HPM_P2
2023/07/25 00:02:38;;;;;;;10.10;5.80;;;;;;;17.55;100.00;97801.38;271224;1268;22372;-79
2023/07/25 00:08:40;;;;;;;9.40;5.40;;;;;;;17.52;100.00;97798.48;272214;1254;22691;-81
2023/07/25 00:15:03;;;;;;;7.70;5.50;;;;;;;17.43;100.00;97790.25;272546;1268;22895;-79
2023/07/25 00:21:04;;;;;;;10.10;6.10;;;;;;;17.34;100.00;97804.60;273734;1269;23675;-80
2023/07/25 00:27:27;;;;;;;8.60;6.30;;;;;;;17.30;100.00;97802.05;273939;1269;22397;-80
2023/07/25 00:33:48;;;;;;;9.90;5.00;;;;;;;17.36;100.00;97804.16;273645;1268;22185;-80
2023/07/25 00:39:53;;;;;;;9.90;4.40;;;;;;;17.41;100.00;97797.81;273738;1269;22228;-79
2023/07/25 00:45:55;;;;;;;5.30;4.20;;;;;;;17.42;100.00;97793.02;273748;1268;22385;-80
2023/07/25 00:51:57;;;;;;;8.80;4.00;;;;;;;17.43;100.00;97800.90;273861;1268;23176;-80
2023/07/25 00:58:00;;;;;;;8.50;5.10;;;;;;;17.47;100.00;97802.94;273864;1268;22400;-79
2023/07/25 01:04:02;;;;;;;12.70;5.70;;;;;;;17.46;100.00;97791.34;273889;1269;22371;-80
2023/07/25 01:10:04;;;;;;;10.00;5.70;;;;;;;17.48;100.00;97795.70;273872;1269;22158;-79
2023/07/25 01:16:06;;;;;;;11.20;5.90;;;;;;;17.45;100.00;97795.08;273823;1268;22322;-80
2023/07/25 01:22:11;;;;;;;10.50;6.50;;;;;;;17.32;100.00;97803.27;273657;1269;22472;-80
2023/07/25 01:28:13;;;;;;;9.30;6.20;;;;;;;17.31;100.00;97798.06;271722;1269;22542;-80
2023/07/25 01:34:18;;;;;;;8.30;5.80;;;;;;;17.31;100.00;97798.77;270635;1269;22543;-80
2023/07/25 01:40:20;;;;;;;9.50;6.40;;;;;;;17.27;100.00;97815.52;270662;1257;22555;-82
2023/07/25 01:46:22;;;;;;;12.60;7.30;;;;;;;17.18;100.00;97823.32;271214;1260;22187;-79
2023/07/25 01:52:24;;;;;;;8.80;5.70;;;;;;;17.22;100.00;97822.11;273329;1268;23622;-80
2023/07/25 01:58:25;;;;;;;11.60;6.20;;;;;;;17.24;100.00;97827.71;273700;1268;22379;-80
2023/07/25 02:04:27;;;;;;;10.40;6.90;;;;;;;17.17;100.00;97838.92;273640;1269;23177;-79
2023/07/25 02:10:49;;;;;;;13.80;6.20;;;;;;;17.04;100.00;97844.41;273687;1268;22180;-80
2023/07/25 02:17:11;;;;;;;10.80;7.00;;;;;;;16.98;100.00;97850.71;273757;1269;23195;-79
2023/07/25 02:23:17;;;;;;;9.60;6.10;;;;;;;16.97;100.00;97855.39;273850;1260;22423;-79
2023/07/25 02:29:19;;;;;;;11.80;6.60;;;;;;;16.97;100.00;97860.38;273692;1269;22474;-79
2023/07/25 02:35:35;;;;;;;13.40;7.00;;;;;;;16.97;100.00;97859.19;273712;1269;23288;-79
2023/07/25 02:41:57;;;;;;;9.30;5.90;;;;;;;17.06;100.00;97857.86;273664;1259;22474;-79
2023/07/25 02:47:59;;;;;;;10.80;6.50;;;;;;;17.10;100.00;97856.31;273787;1269;22974;-80
2023/07/25 02:54:13;;;;;;;13.10;6.80;;;;;;;17.17;100.00;97860.87;273785;1269;22471;-79
2023/07/25 03:00:14;;;;;;;16.20;6.90;;;;;;;17.25;100.00;97870.11;273778;1269;22466;-80
2023/07/25 03:06:16;;;;;;;10.40;6.50;;;;;;;17.28;100.00;97869.55;273617;1260;22396;-80
2023/07/25 03:12:38;;;;;;;15.10;6.40;;;;;;;17.18;100.00;97862.42;273815;1269;22474;-79
2023/07/25 03:18:40;;;;;;;13.00;7.40;;;;;;;17.02;100.00;97859.09;273396;1269;292798;-80
2023/07/25 03:24:42;;;;;;;10.00;6.60;;;;;;;17.02;100.00;97857.69;273775;1257;22407;-80
2023/07/25 03:31:04;;;;;;;9.90;6.40;;;;;;;17.08;100.00;97847.99;273572;1268;24534;-81
2023/07/25 03:37:15;;;;;;;9.20;6.40;;;;;;;17.09;100.00;97850.18;273772;1269;22354;-80
2023/07/25 03:43:37;;;;;;;7.40;5.50;;;;;;;17.06;100.00;97848.21;273726;1266;22445;-80
2023/07/25 03:49:39;;;;;;;12.40;6.20;;;;;;;17.04;100.00;97853.17;273909;1269;23616;-79
2023/07/25 03:55:41;;;;;;;9.80;7.60;;;;;;;17.03;100.00;97860.72;273627;1269;22546;-80
2023/07/25 04:01:42;;;;;;;13.90;6.50;;;;;;;17.02;100.00;97860.73;273713;1268;22375;-80
2023/07/25 04:07:44;;;;;;;10.80;6.60;;;;;;;17.05;100.00;97867.92;273838;1269;22448;-79
2023/07/25 04:13:46;;;;;;;8.90;6.30;;;;;;;17.03;100.00;97874.30;273739;1269;22418;-80
2023/07/25 04:19:48;;;;;;;9.60;7.00;;;;;;;16.96;100.00;97872.55;273838;1269;23122;-80
2023/07/25 04:25:50;;;;;;;12.30;7.50;;;;;;;16.98;100.00;97873.29;273829;1269;22379;-80
2023/07/25 04:31:52;;;;;;;10.70;7.70;;;;;;;16.99;100.00;97873.95;273650;1269;22283;-79
2023/07/25 04:37:53;;;;;;;11.30;7.80;;;;;;;17.08;100.00;97865.20;273654;1269;22454;-80
2023/07/25 04:43:55;;;;;;;13.80;9.00;;;;;;;17.18;100.00;97865.58;273528;1269;22379;-80
2023/07/25 04:49:56;;;;;;;12.90;8.80;;;;;;;17.26;100.00;97861.45;273685;1269;22211;-80
2023/07/25 04:56:18;;;;;;;19.00;9.20;;;;;;;17.29;100.00;97866.88;273633;1259;22243;-80
2023/07/25 05:02:21;;;;;;;19.20;10.40;;;;;;;17.35;100.00;97877.37;273617;1268;22475;-80
2023/07/25 05:08:23;;;;;;;18.90;9.10;;;;;;;17.46;100.00;97880.27;273780;1257;22193;-79
2023/07/25 05:14:32;;;;;;;17.10;10.50;;;;;;;17.56;100.00;97880.48;272495;1269;22586;-79
2023/07/25 05:20:34;;;;;;;15.00;9.70;;;;;;;17.72;100.00;97877.84;273001;1259;22567;-79
2023/07/25 05:26:39;;;;;;;19.00;9.50;;;;;;;17.92;100.00;97877.21;273158;1268;22426;-79
2023/07/25 05:32:41;;;;;;;16.50;9.10;;;;;;;18.08;100.00;97868.39;272583;1268;24150;-79
2023/07/25 05:38:43;;;;;;;14.70;8.90;;;;;;;18.27;100.00;97867.31;272819;1268;22400;-79
2023/07/25 05:44:44;;;;;;;13.30;8.50;;;;;;;18.43;100.00;97859.66;273625;1269;23644;-80
2023/07/25 05:50:50;;;;;;;15.60;9.40;;;;;;;18.54;100.00;97850.52;273714;1259;22441;-79
2023/07/25 05:56:55;;;;;;;14.60;9.80;;;;;;;18.69;100.00;97861.67;273550;1269;23193;-79
2023/07/25 06:02:56;;;;;;;14.70;9.10;;;;;;;18.80;100.00;97867.80;273732;1259;22376;-79
2023/07/25 06:08:58;;;;;;;13.50;9.20;;;;;;;18.93;100.00;97860.70;273695;1269;23205;-79
2023/07/25 06:15:00;;;;;;;16.00;9.00;;;;;;;19.06;100.00;97861.36;273696;1269;22221;-78
2023/07/25 06:21:02;;;;;;;14.70;8.50;;;;;;;19.13;100.00;97863.13;273699;1259;23522;-79
2023/07/25 06:27:04;;;;;;;17.90;8.10;;;;;;;19.25;100.00;97873.67;273644;1268;22377;-79
2023/07/25 06:33:06;;;;;;;11.00;7.20;;;;;;;19.30;100.00;97872.23;273808;1259;23330;-79
2023/07/25 06:39:08;;;;;;;14.80;7.30;;;;;;;19.39;100.00;97867.95;273840;1257;22927;-79
2023/07/25 06:45:22;;;;;;;14.90;7.10;;;;;;;19.50;100.00;97867.23;273833;1268;22643;-78
2023/07/25 06:51:24;;;;;;;11.90;6.20;;;;;;;19.65;100.00;97862.96;273778;1269;22312;-79
2023/07/25 06:57:28;;;;;;;10.80;6.70;;;;;;;19.97;100.00;97862.49;273576;1270;23170;-79
2023/07/25 07:03:32;;;;;;;11.70;6.30;;;;;;;20.52;100.00;97852.98;273716;1269;22416;-80
2023/07/25 07:09:34;;;;;;;7.00;5.10;;;;;;;21.03;100.00;97848.20;273636;1269;22401;-79
2023/07/25 07:15:37;;;;;;;9.00;5.90;;;;;;;21.30;100.00;97843.77;273720;1269;22401;-80
2023/07/25 07:21:39;;;;;;;8.90;5.40;;;;;;;21.48;100.00;97842.67;273789;1268;22516;-81
2023/07/25 07:27:41;;;;;;;8.80;5.50;;;;;;;21.79;100.00;97835.07;273819;1269;22449;-81
2023/07/25 07:33:42;;;;;;;9.50;5.90;;;;;;;22.29;100.00;97824.04;273859;1269;22440;-80
2023/07/25 07:40:11;;;;;;;9.20;5.00;;;;;;;22.55;100.00;97820.14;273522;1269;23247;-80
2023/07/25 07:46:14;;;;;;;7.20;4.90;;;;;;;22.67;100.00;97803.86;273582;1269;22406;-80
2023/07/25 07:52:15;;;;;;;9.10;4.90;;;;;;;23.06;100.00;97808.36;273732;1269;23198;-80
2023/07/25 07:58:17;;;;;;;11.20;5.30;;;;;;;23.18;100.00;97825.88;273486;1269;23620;-81
2023/07/25 08:04:45;;;;;;;9.60;5.50;;;;;;;23.08;100.00;97821.43;273512;1269;22455;-80
2023/07/25 08:10:50;;;;;;;6.30;5.00;;;;;;;23.18;100.00;97812.73;273290;1269;22216;-80
2023/07/25 08:16:57;;;;;;;7.70;5.20;;;;;;;23.52;99.98;97796.04;273772;1269;22416;-80
2023/07/25 08:22:59;;;;;;;;;;;;;;;23.93;99.62;97784.77;273815;1269;22428;-81
2023/07/25 08:29:42;;;;;;;6.80;5.10;;;;;;;24.29;97.71;97776.03;273803;1269;22646;-80
2023/07/25 08:35:46;;;;;;;10.20;5.40;;;;;;;24.63;95.81;97789.90;273784;1267;22193;-79
2023/07/25 08:41:57;;;;;;;7.50;5.00;;;;;;;24.79;93.58;97795.33;273704;1270;22919;-79
2023/07/25 08:48:22;;;;;;;7.00;5.10;;;;;;;24.73;92.03;97804.29;273717;1264;22435;-79
2023/07/25 08:55:05;;;;;;;6.70;5.00;;;;;;;24.85;91.87;97808.38;273681;1269;22199;-80
2023/07/25 09:01:06;;;;;;;6.70;4.50;;;;;;;24.86;89.27;97796.39;273564;1254;22250;-80
2023/07/25 09:07:08;;;;;;;6.90;4.70;;;;;;;24.85;87.50;97775.31;273745;1269;23499;-81
2023/07/25 09:13:10;;;;;;;7.90;5.50;;;;;;;25.03;86.92;97769.47;273819;1269;22480;-79
2023/07/25 09:19:12;;;;;;;5.40;4.80;;;;;;;25.10;85.89;97759.67;273780;1269;22652;-80
2023/07/25 09:25:15;;;;;;;6.70;5.10;;;;;;;25.05;85.57;97756.45;273682;1270;23747;-81
2023/07/25 09:31:47;;;;;;;7.30;4.90;;;;;;;25.08;84.42;97757.59;273613;1270;22380;-80
2023/07/25 09:37:55;;;;;;;8.20;4.90;;;;;;;24.94;82.95;97760.27;273705;1256;22216;-80
2023/07/25 09:44:01;;;;;;;7.90;5.50;;;;;;;24.95;81.86;97766.31;273687;1269;23273;-79
2023/07/25 09:50:05;;;;;;;7.30;4.70;;;;;;;25.05;81.31;97777.63;273579;1269;23130;-80
2023/07/25 09:57:24;;;;;;;;;;;;;;;;;;;;;
2023/07/25 10:03:37;;;;;;;5.80;5.00;;;;;;;25.61;79.58;97768.94;273647;1269;22203;-79
2023/07/25 10:09:39;;;;;;;6.40;4.70;;;;;;;25.90;78.56;97770.70;273740;1270;22543;-79
2023/07/25 10:15:41;;;;;;;7.20;4.70;;;;;;;25.91;77.41;97774.92;273362;1260;24002;-81
2023/07/25 10:22:12;;;;;;;6.00;4.70;;;;;;;26.05;77.14;97760.50;272961;1267;22412;-80
2023/07/25 10:28:21;;;;;;;9.40;5.00;;;;;;;25.86;76.52;97752.64;273773;1269;22409;-79
2023/07/25 10:34:22;;;;;;;6.20;4.60;;;;;;;25.73;75.92;97733.97;273681;1269;23618;-79
2023/07/25 10:40:24;;;;;;;5.40;4.30;;;;;;;25.73;75.05;97727.95;273666;1260;22393;-79
2023/07/25 10:46:46;;;;;;;5.60;4.30;;;;;;;25.78;74.69;97729.08;273795;1267;22289;-79
2023/07/25 10:52:47;;;;;;;5.90;4.50;;;;;;;25.72;74.77;97723.57;273767;1272;22206;-80
2023/07/25 10:59:08;;;;;;;5.10;3.90;;;;;;;25.61;74.48;97716.60;273796;1270;22183;-79
2023/07/25 11:05:13;;;;;;;5.60;3.90;;;;;;;25.41;74.31;97701.58;273577;1269;23430;-79
2023/07/25 11:11:15;;;;;;;6.30;4.10;;;;;;;25.18;74.19;97694.39;273478;1256;23858;-80
2023/07/25 11:17:38;;;;;;;5.00;4.00;;;;;;;25.16;73.73;97689.19;273538;1269;23065;-79
2023/07/25 11:24:04;;;;;;;4.80;3.80;;;;;;;25.14;73.51;97689.03;273734;1269;22373;-79
2023/07/25 11:30:09;;;;;;;5.30;4.30;;;;;;;25.07;73.37;97680.66;273497;1258;25347;-81
2023/07/25 11:36:11;;;;;;;8.80;4.00;;;;;;;24.96;73.10;97670.64;273611;1269;23337;-79
2023/07/25 11:42:13;;;;;;;5.50;4.10;;;;;;;24.78;73.30;97647.81;273773;1257;22346;-79
2023/07/25 11:48:19;;;;;;;5.20;3.80;;;;;;;24.59;73.65;97633.80;273813;1269;22399;-79
2023/07/25 11:54:21;;;;;;;6.40;4.10;;;;;;;24.36;74.03;97624.77;273630;1270;22355;-79
2023/07/25 12:00:23;;;;;;;7.80;4.40;;;;;;;24.09;74.65;97620.58;273805;1269;22356;-78
2023/07/25 12:06:48;;;;;;;7.20;4.50;;;;;;;24.01;75.43;97615.64;273772;1257;22411;-79
2023/07/25 12:12:50;;;;;;;10.00;4.20;;;;;;;24.02;76.99;97611.98;273616;1263;22901;-79
2023/07/25 12:19:10;;;;;;;7.50;4.10;;;;;;;24.08;77.33;97612.03;273704;1260;22403;-78
2023/07/25 12:25:17;;;;;;;5.20;3.90;;;;;;;24.05;76.42;97617.30;273650;1257;23502;-78
2023/07/25 12:31:19;;;;;;;6.90;3.70;;;;;;;24.01;76.33;97611.31;273720;1269;22208;-79
2023/07/25 12:37:20;;;;;;;7.10;3.80;;;;;;;23.94;75.90;97601.23;273704;1269;22360;-78
2023/07/25 12:43:22;;;;;;;5.90;3.60;;;;;;;23.83;76.41;97595.91;273810;1254;22523;-78
2023/07/25 12:49:25;;;;;;;7.50;3.50;;;;;;;23.63;76.62;97596.41;273839;1267;22402;-79
2023/07/25 12:55:51;;;;;;;5.20;3.40;;;;;;;23.43;77.30;97600.08;273757;1269;22186;-79
2023/07/25 13:01:53;;;;;;;8.50;3.60;;;;;;;23.06;78.37;97610.54;273804;1266;22503;-78
2023/07/25 13:07:56;;;;;;;5.20;2.90;;;;;;;22.73;79.29;97619.08;273581;1269;22413;-79
2023/07/25 13:13:57;;;;;;;4.40;2.70;;;;;;;22.43;80.19;97613.41;273701;1270;22196;-80
2023/07/25 13:20:06;;;;;;;4.50;3.10;;;;;;;22.12;80.65;97603.69;273728;1269;22514;-79
2023/07/25 13:26:15;;;;;;;4.10;2.80;;;;;;;21.81;81.41;97599.40;273748;1269;22361;-79
2023/07/25 13:32:58;;;;;;;6.50;3.20;;;;;;;21.51;82.20;97619.40;273263;1257;22569;-80
2023/07/25 13:39:40;;;;;;;4.60;3.10;;;;;;;21.18;83.66;97634.95;272376;1269;22472;-80
2023/07/25 13:45:45;;;;;;;4.50;3.20;;;;;;;20.82;85.59;97635.69;271280;1269;22543;-79
2023/07/25 13:52:01;;;;;;;4.90;3.40;;;;;;;20.56;86.91;97646.09;273529;1267;22427;-81
2023/07/25 13:58:23;;;;;;;5.90;3.40;;;;;;;20.28;87.64;97670.89;273681;1264;23489;-79
2023/07/25 14:04:25;;;;;;;4.70;3.00;;;;;;;19.99;88.72;97679.90;273700;1256;22393;-79
2023/07/25 14:10:27;;;;;;;6.50;4.30;;;;;;;19.81;90.32;97688.13;273618;1269;23636;-79
2023/07/25 14:17:09;;;;;;;5.50;3.40;;;;;;;19.72;91.20;97695.91;273684;1269;23111;-80
2023/07/25 14:23:11;;;;;;;5.70;3.00;;;;;;;19.57;91.85;97718.89;273599;1267;22299;-79
2023/07/25 14:29:15;;;;;;;8.50;3.90;;;;;;;19.41;92.27;97734.02;273700;1258;22284;-81
2023/07/25 14:35:38;;;;;;;10.80;3.80;;;;;;;19.14;93.09;97735.91;273770;1257;22352;-80
2023/07/25 14:42:02;;;;;;;7.60;3.80;;;;;;;18.92;94.57;97741.98;273718;1270;23220;-80
2023/07/25 14:48:04;;;;;;;8.70;4.00;;;;;;;18.85;95.80;97737.71;273450;1270;22406;-80
2023/07/25 14:54:05;;;;;;;7.70;4.40;;;;;;;18.85;97.12;97736.50;273769;1260;22357;-80
2023/07/25 15:00:09;;;;;;;7.10;3.90;;;;;;;18.87;97.86;97728.96;273409;1269;23280;-80
2023/07/25 15:07:10;;;;;;;6.40;3.80;;;;;;;18.87;98.34;97714.73;273724;1269;22422;-80
2023/07/25 15:13:12;;;;;;;6.30;4.20;;;;;;;18.83;98.47;97700.50;273722;1269;22251;-80
2023/07/25 15:19:14;;;;;;;7.90;4.00;;;;;;;18.73;98.90;97690.75;273667;1268;119831;-79
2023/07/25 15:25:15;;;;;;;6.50;3.70;;;;;;;18.72;99.62;97700.39;273769;1264;23126;-80
2023/07/25 15:31:17;;;;;;;7.10;3.60;;;;;;;18.74;100.00;97696.64;273852;1269;22408;-79
2023/07/25 15:37:59;;;;;;;7.20;3.70;;;;;;;18.75;100.00;97697.71;273776;1267;23735;-81
2023/07/25 15:44:01;;;;;;;5.60;4.00;;;;;;;18.66;100.00;97704.98;273672;1264;22181;-80
2023/07/25 15:50:03;;;;;;;9.30;5.30;;;;;;;18.54;100.00;97715.68;273778;1269;22193;-80
2023/07/25 15:56:37;;;;;;;7.70;5.60;;;;;;;18.32;100.00;97707.70;273685;1269;22385;-81
2023/07/25 16:03:10;;;;;;;5.70;3.90;;;;;;;18.19;100.00;97705.69;273780;1266;22474;-80
2023/07/25 16:09:12;;;;;;;6.10;3.80;;;;;;;18.13;100.00;97701.18;273764;1267;22203;-80
2023/07/25 16:15:14;;;;;;;5.50;3.80;;;;;;;18.13;100.00;97697.48;273856;1269;23194;-80
2023/07/25 16:21:38;;;;;;;6.60;3.40;;;;;;;18.11;100.00;97698.02;273589;1269;22564;-80
2023/07/25 16:27:40;;;;;;;6.10;4.00;;;;;;;18.10;100.00;97696.23;273751;1269;22440;-80
2023/07/25 16:34:22;;;;;;;5.30;4.00;;;;;;;18.10;100.00;97693.71;273753;1268;22448;-79
2023/07/25 16:40:31;;;;;;;6.10;3.30;;;;;;;18.05;100.00;97683.70;273730;1257;22512;-81
2023/07/25 16:46:54;;;;;;;6.00;3.90;;;;;;;18.05;100.00;97683.64;273777;1269;23120;-80
2023/07/25 16:52:56;;;;;;;7.20;3.90;;;;;;;18.00;100.00;97688.66;273698;1268;22618;-80
2023/07/25 16:58:58;;;;;;;6.20;4.10;;;;;;;17.98;100.00;97688.79;273435;1260;22453;-80
2023/07/25 17:05:03;;;;;;;8.10;5.60;;;;;;;18.02;100.00;97697.29;273653;1259;23017;-80
2023/07/25 17:11:42;;;;;;;7.20;4.60;;;;;;;17.93;100.00;97706.95;273167;1269;22344;-81
2023/07/25 17:17:44;;;;;;;9.00;5.60;;;;;;;17.89;100.00;97707.56;273090;1268;22412;-80
2023/07/25 17:23:46;;;;;;;6.80;4.60;;;;;;;17.92;100.00;97705.97;273149;1270;23404;-80
2023/07/25 17:30:08;;;;;;;9.20;4.30;;;;;;;17.95;100.00;97715.39;273239;1270;22226;-80
2023/07/25 17:36:50;;;;;;;7.70;4.40;;;;;;;17.98;100.00;97727.17;273052;1272;23636;-81
2023/07/25 17:43:13;;;;;;;6.40;4.50;;;;;;;17.98;100.00;97718.78;273384;1269;22434;-81
2023/07/25 17:49:22;;;;;;;8.40;4.90;;;;;;;17.95;100.00;97714.63;273587;1269;22223;-81
2023/07/25 17:55:24;;;;;;;7.90;5.10;;;;;;;17.92;100.00;97712.67;273727;1269;22199;-81
2023/07/25 18:01:25;;;;;;;4.50;3.90;;;;;;;17.85;100.00;97706.09;273740;1269;22444;-80
2023/07/25 18:07:27;;;;;;;8.00;4.70;;;;;;;17.82;100.00;97718.21;273741;1269;22445;-80
2023/07/25 18:13:38;;;;;;;8.30;4.70;;;;;;;17.84;100.00;97729.75;273753;1266;22397;-79
2023/07/25 18:20:00;;;;;;;7.50;4.50;;;;;;;17.81;100.00;97724.34;273703;1268;23216;-78
2023/07/25 18:26:05;;;;;;;7.20;4.50;;;;;;;17.72;100.00;97731.72;273747;1269;23415;-80
2023/07/25 18:32:07;;;;;;;10.20;5.10;;;;;;;17.68;100.00;97728.16;273817;1269;22452;-79
2023/07/25 18:38:29;;;;;;;7.80;4.80;;;;;;;17.65;100.00;97736.26;273519;1269;22520;-79
2023/07/25 18:44:31;;;;;;;6.90;5.10;;;;;;;17.62;100.00;97746.17;273753;1268;23597;-79
2023/07/25 18:50:33;;;;;;;7.00;4.30;;;;;;;17.56;100.00;97752.93;273771;1269;22393;-79
2023/07/25 18:57:15;;;;;;;8.50;4.40;;;;;;;17.52;100.00;97761.31;273701;1269;23505;-79
2023/07/25 19:03:17;;;;;;;6.10;4.80;;;;;;;17.48;100.00;97758.92;273742;1266;22577;-79
2023/07/25 19:09:21;;;;;;;8.70;5.20;;;;;;;17.49;100.00;97766.40;273713;1259;22415;-81
2023/07/25 19:15:23;;;;;;;8.90;4.80;;;;;;;17.47;100.00;97761.02;272998;1258;25039;-81
2023/07/25 19:22:03;;;;;;;9.00;5.50;;;;;;;17.44;100.00;97750.42;273816;1269;22201;-81
2023/07/25 19:28:26;;;;;;;6.10;4.70;;;;;;;17.37;100.00;97745.38;273364;1269;23695;-81
2023/07/25 19:34:28;;;;;;;8.70;4.50;;;;;;;17.26;100.00;97759.15;273883;1269;22911;-81
2023/07/25 19:40:50;;;;;;;7.30;4.50;;;;;;;17.23;100.00;97777.88;273775;1258;23070;-81
2023/07/25 19:46:52;;;;;;;6.60;4.80;;;;;;;17.22;100.00;97779.73;272749;1256;22523;-80
2023/07/25 19:53:01;;;;;;;7.70;4.70;;;;;;;17.20;100.00;97780.20;271875;1269;22568;-79
2023/07/25 19:59:39;;;;;;;6.60;5.20;;;;;;;17.16;100.00;97784.51;271863;1260;22331;-80
2023/07/25 20:05:41;;;;;;;9.20;5.60;;;;;;;17.12;100.00;97780.97;271547;1264;23248;-79
2023/07/25 20:11:43;;;;;;;10.70;5.60;;;;;;;17.03;100.00;97786.77;272061;1269;22548;-81
2023/07/25 20:18:04;;;;;;;11.60;5.80;;;;;;;16.98;100.00;97797.23;271991;1269;22518;-81
2023/07/25 20:24:11;;;;;;;8.00;4.40;;;;;;;16.90;100.00;97800.01;273854;1256;22392;-80
2023/07/25 20:30:48;;;;;;;6.00;4.60;;;;;;;16.81;100.00;97796.61;273062;1268;22169;-80
2023/07/25 20:36:50;;;;;;;9.90;5.60;;;;;;;16.70;100.00;97786.86;273449;1269;22397;-80
2023/07/25 20:42:51;;;;;;;11.10;5.20;;;;;;;16.55;100.00;97785.27;273562;1259;22295;-81
2023/07/25 20:48:53;;;;;;;8.40;5.40;;;;;;;16.44;100.00;97783.17;273614;1269;22435;-81
2023/07/25 20:55:02;;;;;;;9.00;5.90;;;;;;;16.39;100.00;97773.70;273767;1266;22557;-81
2023/07/25 21:01:05;;;;;;;7.80;5.20;;;;;;;16.29;100.00;97782.48;272079;1266;22581;-82
2023/07/25 21:07:07;;;;;;;9.30;5.70;;;;;;;16.10;100.00;97796.38;273286;1269;22644;-81
2023/07/25 21:13:09;;;;;;;10.50;4.70;;;;;;;16.07;100.00;97787.77;271317;1269;22401;-81
2023/07/25 21:19:18;;;;;;;8.80;4.50;;;;;;;15.98;100.00;97774.64;271826;1259;22186;-79
2023/07/25 21:26:25;;;;;;;;;;;;;;;;;;;;;
2023/07/25 21:32:36;;;;;;;6.00;4.80;;;;;;;15.80;100.00;97773.86;272096;1268;23543;-81
2023/07/25 21:38:38;;;;;;;7.10;5.50;;;;;;;15.79;100.00;97783.27;271870;1256;22854;-80
2023/07/25 21:45:00;;;;;;;8.40;5.70;;;;;;;15.86;100.00;97781.94;271853;1269;22584;-82
2023/07/25 21:51:04;;;;;;;8.70;5.70;;;;;;;15.86;100.00;97781.86;273435;1264;23180;-80
2023/07/25 21:57:08;;;;;;;6.60;5.00;;;;;;;15.80;100.00;97778.10;273731;1269;22397;-80
2023/07/25 22:03:10;;;;;;;9.70;5.20;;;;;;;15.73;100.00;97781.95;273814;1269;22416;-80
2023/07/25 22:09:12;;;;;;;11.90;6.00;;;;;;;15.63;100.00;97785.30;273504;1268;22603;-79
2023/07/25 22:15:24;;;;;;;14.00;6.10;;;;;;;15.48;100.00;97787.76;273430;1269;22682;-81
2023/07/25 22:21:47;;;;;;;10.10;4.50;;;;;;;15.33;100.00;97784.53;272139;1269;22507;-80
2023/07/25 22:27:52;;;;;;;9.40;5.40;;;;;;;15.30;100.00;97784.67;271720;1266;22544;-80
2023/07/25 22:33:54;;;;;;;9.30;5.10;;;;;;;15.29;100.00;97778.08;272217;1253;22544;-80
2023/07/25 22:39:56;;;;;;;8.80;5.30;;;;;;;15.24;100.00;97765.44;271513;1269;23164;-80
2023/07/25 22:45:58;;;;;;;8.90;4.30;;;;;;;15.18;100.00;97762.80;273817;1268;22486;-80
2023/07/25 22:52:00;;;;;;;9.90;5.30;;;;;;;15.09;100.00;97777.28;273828;1269;22256;-80
2023/07/25 22:58:43;;;;;;;7.10;5.00;;;;;;;15.03;100.00;97786.02;273722;1269;22620;-80
2023/07/25 23:04:46;;;;;;;10.00;5.20;;;;;;;14.94;100.00;97794.29;273070;1269;22427;-80
2023/07/25 23:11:43;;;;;;;5.60;4.40;;;;;;;14.94;100.00;97798.60;270720;1269;22558;-81
2023/07/25 23:17:45;;;;;;;9.70;5.40;;;;;;;14.91;100.00;97811.61;272941;1269;22536;-80
2023/07/25 23:24:08;;;;;;;7.30;4.80;;;;;;;14.96;100.00;97823.84;272986;1268;22532;-80
2023/07/25 23:30:10;;;;;;;11.10;4.70;;;;;;;15.04;100.00;97829.79;272209;1269;23380;-80
2023/07/25 23:36:32;;;;;;;7.00;4.80;;;;;;;15.00;100.00;97824.67;273841;1269;22184;-80
2023/07/25 23:42:34;;;;;;;6.20;4.40;;;;;;;15.02;100.00;97815.18;273631;1268;23447;-80
2023/07/25 23:48:36;;;;;;;9.40;5.10;;;;;;;15.01;100.00;97815.67;273877;1269;22218;-80
2023/07/25 23:54:38;;;;;;;7.90;4.60;;;;;;;15.09;100.00;97823.98;273894;1269;22175;-82
